Aérodrome :
LOGIN :

S'inscrire | Disclaimer

   EN    FR    IT 

 










Légende :    VFR   VFR Marginal   IFR   IFR Intensif   IFR Très Intensif
Visi : 
Plafond : 
>= 8 km
>= 3000ft
5 à 8 km
1000 à 3000 ft
1500m à 5 km
500 à 1000 ft
800 à 1500m
200 à 500 ft
< 800m
< 200 ft
Symboles :   Orages  Brouillard  Fortes neiges  Fortes précipitations  Vent > 20 kt
SIGMETs :   Divers  Orages  Givrage  Turbulence  Onde Orograph.  Cendres Volcan.






- Altitude de l'aérodrome : 156 ft
- Code IATA : LCC


LIBN - Lecce Galatine (military)

DERNIER METAR :
  • 291555Z 25012KT 9999 FEW040 13/10 Q1012 RMK BKN SCT080 BKN200 VIS MIN 9999 WIND THR14 24013KT WIND THR32 25011KT BLU

METARs EXPIRÉS :
  • 291455Z 25013KT 9999 FEW040 15/09 Q1012 RMK BKN SCT080 BKN200 VIS MIN 9999 WIND THR14 24013KT WIND THR32 25011KT BLU
  • 291355Z 25015KT 9999 FEW040 17/10 Q1011 RMK BKN SCT110 VIS MIN 9999 WIND THR14 25015KT WIND THR32 24016KT BLU

TAF TAF LIBN
Valide du 29 à 15h jusqu'au 30 à 00h UTC


291400Z 2915/2924 27018KT 9999 FEW035
BECMG 2916/2918 26010KT



MET'MAP, la Météo Aéronautique d'un coup d'oeil ! - Copyright ORBIFLY Décembre 2007 - Disclaimer

ORBIFLY MET'MAP TEAM :

Programmation & Développement : Alexandra Zaïnal
Sur une idée originale de : Baudouin d'Aumeries
Assistance à la programmation : Marc-Olivier Méhu
Soutien technique & logistique : Manuel Goepfert

Contact : metmap@orbifly.com




SOURCES & CREDITS :

   NOAA